Time;durP1;ratioP1;P1;durP2;ratioP2;P2;SDS_P1;SDS_P2;PMS_P1;PMS_P2;Temp;Humidity;BMP_temperature;BMP_pressure;BME280_temperature;BME280_humidity;BME280_pressure;Samples;Min_cycle;Max_cycle;Signal;HPM_P1;HPM_P2
2022/09/11 00:01:26;;;;;;;10.95;2.15;;;;;;;;;;5136937;27;20046;-63
2022/09/11 00:03:53;;;;;;;3.22;1.70;;;;;;;;;;5132425;27;20102;-64
2022/09/11 00:06:19;;;;;;;3.25;1.38;;;;;;;;;;5132483;27;20041;-63
2022/09/11 00:08:45;;;;;;;6.28;2.13;;;;;;;;;;5129954;27;20020;-63
2022/09/11 00:11:16;;;;;;;1.50;1.23;;;;;;;;;;5130778;27;20110;-63
2022/09/11 00:13:41;;;;;;;;;;;;;;;;;;5132788;27;20016;-63
2022/09/11 00:16:16;;;;;;;4.97;1.30;;;;;;;;;;5135988;27;20556;-63
2022/09/11 00:18:42;;;;;;;4.38;0.82;;;;;;;;;;5134382;27;20236;-63
2022/09/11 00:21:07;;;;;;;6.93;2.50;;;;;;;;;;5130575;27;20469;-64
2022/09/11 00:23:32;;;;;;;2.15;1.55;;;;;;;;;;5132425;27;20015;-63
2022/09/11 00:26:01;;;;;;;9.30;1.70;;;;;;;;;;5126174;27;20146;-63
2022/09/11 00:28:27;;;;;;;1.60;1.20;;;;;;;;;;5136981;27;20033;-64
2022/09/11 00:30:59;;;;;;;4.03;1.77;;;;;;;;;;5132052;27;20027;-64
2022/09/11 00:33:26;;;;;;;4.10;1.65;;;;;;;;;;5133246;27;20075;-63
2022/09/11 00:35:57;;;;;;;1.55;1.17;;;;;;;;;;5133544;27;20102;-63
2022/09/11 00:38:22;;;;;;;0.82;0.75;;;;;;;;;;5131135;27;20828;-63
2022/09/11 00:40:48;;;;;;;2.75;1.75;;;;;;;;;;5134187;27;20026;-63
2022/09/11 00:43:13;;;;;;;1.63;0.93;;;;;;;;;;5101745;27;20084;-63
2022/09/11 00:45:39;;;;;;;2.55;1.50;;;;;;;;;;5130350;27;20019;-62
2022/09/11 00:48:04;;;;;;;2.67;2.05;;;;;;;;;;5130946;27;20020;-63
2022/09/11 00:50:30;;;;;;;2.70;1.90;;;;;;;;;;5132654;27;20023;-63
2022/09/11 00:53:01;;;;;;;1.75;0.82;;;;;;;;;;5139580;27;20029;-63
2022/09/11 00:55:31;;;;;;;2.53;1.55;;;;;;;;;;5131844;27;20054;-63
2022/09/11 00:58:02;;;;;;;3.08;2.38;;;;;;;;;;5129893;27;20019;-64
2022/09/11 01:00:28;;;;;;;1.95;1.45;;;;;;;;;;5132724;27;20536;-64
2022/09/11 01:02:53;;;;;;;2.65;1.15;;;;;;;;;;5135306;27;20109;-64
2022/09/11 01:05:21;;;;;;;3.83;1.83;;;;;;;;;;5132572;27;20422;-64
2022/09/11 01:07:47;;;;;;;3.35;1.83;;;;;;;;;;5135929;27;20170;-64
2022/09/11 01:10:13;;;;;;;1.75;1.17;;;;;;;;;;5131318;27;20019;-63
2022/09/11 01:12:41;;;;;;;2.47;1.38;;;;;;;;;;5135627;27;20358;-64
2022/09/11 01:15:10;;;;;;;5.95;2.20;;;;;;;;;;5137751;27;20024;-63
2022/09/11 01:17:54;;;;;;;7.40;2.28;;;;;;;;;;5135538;27;20023;-63
2022/09/11 01:20:23;;;;;;;2.38;1.88;;;;;;;;;;5128298;27;20015;-63
2022/09/11 01:22:55;;;;;;;5.43;1.95;;;;;;;;;;5136026;27;20029;-63
2022/09/11 01:25:28;;;;;;;2.10;1.48;;;;;;;;;;5136651;27;20030;-63
2022/09/11 01:27:57;;;;;;;2.35;1.55;;;;;;;;;;5114597;27;20019;-63
2022/09/11 01:30:25;;;;;;;3.80;1.42;;;;;;;;;;5133779;27;20030;-63
2022/09/11 01:33:21;;;;;;;5.28;1.92;;;;;;;;;;5135338;27;20085;-64
2022/09/11 01:35:53;;;;;;;8.77;1.58;;;;;;;;;;5117486;27;20038;-64
2022/09/11 01:38:30;;;;;;;2.53;1.75;;;;;;;;;;5134598;27;20024;-64
2022/09/11 01:40:58;;;;;;;2.60;1.75;;;;;;;;;;5136686;27;20019;-64
2022/09/11 01:43:25;;;;;;;4.13;1.95;;;;;;;;;;5131936;27;20019;-64
2022/09/11 01:45:51;;;;;;;1.60;1.27;;;;;;;;;;5134662;27;20026;-63
2022/09/11 01:48:18;;;;;;;7.43;3.00;;;;;;;;;;5132931;27;20034;-63
2022/09/11 01:50:44;;;;;;;4.55;2.30;;;;;;;;;;5135006;27;20023;-63
2022/09/11 01:53:12;;;;;;;2.53;1.90;;;;;;;;;;5132548;27;20026;-63
2022/09/11 01:55:47;;;;;;;3.72;1.75;;;;;;;;;;5131926;27;20100;-63
2022/09/11 01:58:25;;;;;;;3.40;1.40;;;;;;;;;;5130637;27;20023;-64
2022/09/11 02:00:53;;;;;;;3.72;2.00;;;;;;;;;;5129053;27;20114;-63
2022/09/11 02:03:27;;;;;;;1.42;1.02;;;;;;;;;;5133013;27;20033;-63
2022/09/11 02:05:52;;;;;;;1.60;1.15;;;;;;;;;;5132816;27;20019;-63
2022/09/11 02:08:19;;;;;;;1.95;1.25;;;;;;;;;;5124499;27;20023;-63
2022/09/11 02:11:05;;;;;;;2.08;1.10;;;;;;;;;;5131792;27;20095;-63
2022/09/11 02:13:35;;;;;;;4.55;2.65;;;;;;;;;;5130500;27;20057;-62
2022/09/11 02:16:21;;;;;;;2.30;1.52;;;;;;;;;;5133705;27;20135;-63
2022/09/11 02:18:57;;;;;;;3.38;1.30;;;;;;;;;;5133389;27;20074;-63
2022/09/11 02:21:23;;;;;;;1.23;0.88;;;;;;;;;;5127526;27;20031;-63
2022/09/11 02:23:48;;;;;;;2.75;1.98;;;;;;;;;;5133707;27;20033;-63
2022/09/11 02:26:15;;;;;;;3.78;1.90;;;;;;;;;;5130471;27;20098;-63
2022/09/11 02:28:40;;;;;;;3.47;2.63;;;;;;;;;;5136655;27;20019;-63
2022/09/11 02:31:06;;;;;;;2.65;1.30;;;;;;;;;;5127640;27;20023;-63
2022/09/11 02:33:35;;;;;;;2.28;1.70;;;;;;;;;;5124914;27;20016;-63
2022/09/11 02:36:21;;;;;;;2.80;1.63;;;;;;;;;;5131783;27;20022;-63
2022/09/11 02:38:56;;;;;;;5.65;1.65;;;;;;;;;;5132118;27;20019;-64
2022/09/11 02:41:28;;;;;;;2.15;1.40;;;;;;;;;;5130492;27;20030;-64
2022/09/11 02:44:14;;;;;;;4.93;1.67;;;;;;;;;;5134080;27;20053;-64
2022/09/11 02:46:51;;;;;;;5.00;1.67;;;;;;;;;;5130495;27;20015;-64
2022/09/11 02:49:24;;;;;;;4.22;2.42;;;;;;;;;;5131730;27;20027;-63
2022/09/11 02:52:02;;;;;;;7.10;1.92;;;;;;;;;;5133118;27;20438;-63
2022/09/11 02:54:33;;;;;;;3.88;2.20;;;;;;;;;;5134729;27;20022;-63
2022/09/11 02:57:14;;;;;;;3.33;1.98;;;;;;;;;;5129471;27;20065;-63
2022/09/11 02:59:41;;;;;;;3.28;2.15;;;;;;;;;;5130941;27;20438;-63
2022/09/11 03:02:12;;;;;;;8.70;1.50;;;;;;;;;;5128227;27;20031;-63
2022/09/11 03:04:37;;;;;;;3.80;2.05;;;;;;;;;;5134569;27;20049;-65
2022/09/11 03:07:03;;;;;;;1.67;1.30;;;;;;;;;;5137292;27;20613;-64
2022/09/11 03:09:28;;;;;;;9.48;2.13;;;;;;;;;;5131489;27;20499;-64
2022/09/11 03:11:54;;;;;;;4.15;2.05;;;;;;;;;;5131890;27;20526;-64
2022/09/11 03:14:19;;;;;;;3.80;1.63;;;;;;;;;;5139288;27;20020;-64
2022/09/11 03:16:44;;;;;;;2.20;2.00;;;;;;;;;;5136402;27;20058;-64
2022/09/11 03:19:10;;;;;;;3.30;1.70;;;;;;;;;;5141251;27;20516;-64
2022/09/11 03:21:36;;;;;;;8.15;2.17;;;;;;;;;;5134958;27;20029;-64
2022/09/11 03:24:02;;;;;;;10.30;2.33;;;;;;;;;;5137792;27;20027;-64
2022/09/11 03:26:28;;;;;;;3.45;2.50;;;;;;;;;;5137042;27;20019;-64
2022/09/11 03:28:53;;;;;;;4.18;1.52;;;;;;;;;;5132992;27;20034;-64
2022/09/11 03:31:19;;;;;;;2.78;1.85;;;;;;;;;;5131559;27;20370;-64
2022/09/11 03:33:44;;;;;;;2.80;2.10;;;;;;;;;;5132873;27;20717;-64
2022/09/11 03:36:09;;;;;;;3.47;1.83;;;;;;;;;;5135440;27;20041;-64
2022/09/11 03:38:36;;;;;;;3.88;2.05;;;;;;;;;;5136834;27;20079;-63
2022/09/11 03:41:02;;;;;;;2.58;1.98;;;;;;;;;;5138741;27;20018;-64
2022/09/11 03:43:27;;;;;;;7.38;2.47;;;;;;;;;;5139916;27;20552;-64
2022/09/11 03:45:52;;;;;;;10.98;2.50;;;;;;;;;;5133875;27;20535;-64
2022/09/11 03:48:18;;;;;;;3.00;1.50;;;;;;;;;;5133871;27;20022;-63
2022/09/11 03:50:44;;;;;;;6.85;3.70;;;;;;;;;;5133387;27;20478;-64
2022/09/11 03:53:10;;;;;;;2.63;1.75;;;;;;;;;;5135116;27;20016;-63
2022/09/11 03:55:36;;;;;;;1.58;1.10;;;;;;;;;;5134350;27;20035;-63
2022/09/11 03:58:01;;;;;;;3.95;2.22;;;;;;;;;;5131701;27;20015;-63
2022/09/11 04:00:26;;;;;;;1.95;1.40;;;;;;;;;;5134100;27;20023;-63
2022/09/11 04:02:52;;;;;;;4.28;1.92;;;;;;;;;;5136697;27;20828;-63
2022/09/11 04:05:17;;;;;;;2.50;1.25;;;;;;;;;;5133782;27;20094;-63
2022/09/11 04:07:43;;;;;;;4.97;1.92;;;;;;;;;;5133187;27;20023;-63
2022/09/11 04:10:08;;;;;;;5.68;1.60;;;;;;;;;;5126627;27;20035;-63
2022/09/11 04:12:34;;;;;;;8.35;1.88;;;;;;;;;;5137668;27;20046;-63
2022/09/11 04:15:01;;;;;;;2.13;1.38;;;;;;;;;;5135392;27;20030;-62
2022/09/11 04:17:28;;;;;;;6.07;2.97;;;;;;;;;;5133437;27;20019;-63
2022/09/11 04:19:53;;;;;;;6.60;1.83;;;;;;;;;;5129370;27;20182;-63
2022/09/11 04:22:18;;;;;;;4.53;3.17;;;;;;;;;;5132297;27;20110;-63
2022/09/11 04:24:44;;;;;;;5.68;2.38;;;;;;;;;;5137215;27;20038;-63
2022/09/11 04:27:11;;;;;;;3.22;1.85;;;;;;;;;;5132379;27;20046;-63
2022/09/11 04:29:36;;;;;;;7.93;2.75;;;;;;;;;;5130207;27;20149;-63
2022/09/11 04:32:02;;;;;;;6.68;2.78;;;;;;;;;;5134068;27;20102;-63
2022/09/11 04:34:27;;;;;;;3.25;1.70;;;;;;;;;;5137270;27;20015;-63
2022/09/11 04:36:54;;;;;;;3.33;2.08;;;;;;;;;;5133911;27;20030;-63
2022/09/11 04:39:19;;;;;;;5.75;2.65;;;;;;;;;;5133032;27;20015;-63
2022/09/11 04:41:44;;;;;;;4.80;2.38;;;;;;;;;;5132345;27;20026;-63
2022/09/11 04:44:10;;;;;;;9.95;2.58;;;;;;;;;;5135470;27;20023;-64
2022/09/11 04:46:35;;;;;;;3.47;2.28;;;;;;;;;;5132666;27;20190;-63
2022/09/11 04:49:03;;;;;;;2.60;1.98;;;;;;;;;;5131962;27;20887;-63
2022/09/11 04:51:30;;;;;;;14.38;3.17;;;;;;;;;;5134341;27;20020;-64
2022/09/11 04:53:56;;;;;;;4.47;3.00;;;;;;;;;;5133973;27;20175;-63
2022/09/11 04:56:23;;;;;;;8.40;1.88;;;;;;;;;;5133132;27;20138;-63
2022/09/11 04:58:54;;;;;;;4.15;2.30;;;;;;;;;;5132181;27;20044;-63
2022/09/11 05:01:19;;;;;;;2.03;1.83;;;;;;;;;;5132100;27;20031;-63
2022/09/11 05:03:45;;;;;;;2.90;2.08;;;;;;;;;;5135905;27;20110;-62
2022/09/11 05:06:11;;;;;;;2.65;1.90;;;;;;;;;;5134878;27;20169;-62
2022/09/11 05:08:36;;;;;;;8.88;2.40;;;;;;;;;;5136689;27;20057;-62
2022/09/11 05:11:05;;;;;;;2.75;1.63;;;;;;;;;;5136304;27;20149;-63
2022/09/11 05:13:32;;;;;;;3.63;1.90;;;;;;;;;;5135741;27;20045;-63
2022/09/11 05:16:04;;;;;;;8.82;1.80;;;;;;;;;;5134161;27;20020;-64
2022/09/11 05:18:29;;;;;;;1.10;0.88;;;;;;;;;;5130894;27;20019;-63
2022/09/11 05:20:59;;;;;;;3.25;2.20;;;;;;;;;;5139399;27;20106;-63
2022/09/11 05:23:24;;;;;;;4.32;2.63;;;;;;;;;;5130092;27;20405;-63
2022/09/11 05:25:49;;;;;;;2.88;2.05;;;;;;;;;;5130984;27;20030;-64
2022/09/11 05:28:16;;;;;;;2.45;1.75;;;;;;;;;;5131180;27;20027;-63
2022/09/11 05:30:41;;;;;;;2.40;1.08;;;;;;;;;;5136418;27;20019;-63
2022/09/11 05:33:07;;;;;;;2.67;1.38;;;;;;;;;;5133860;27;20025;-64
2022/09/11 05:35:33;;;;;;;3.08;2.08;;;;;;;;;;5137482;27;20136;-64
2022/09/11 05:37:58;;;;;;;9.73;2.42;;;;;;;;;;5133825;27;20093;-63
2022/09/11 05:40:23;;;;;;;3.80;2.15;;;;;;;;;;5131138;27;20019;-62
2022/09/11 05:42:48;;;;;;;4.72;2.35;;;;;;;;;;5135026;27;20082;-63
2022/09/11 05:45:14;;;;;;;2.58;2.03;;;;;;;;;;5129989;27;20011;-63
2022/09/11 05:47:39;;;;;;;3.58;2.20;;;;;;;;;;5130527;27;20080;-63
2022/09/11 05:50:04;;;;;;;3.85;2.40;;;;;;;;;;5129420;27;20064;-63
2022/09/11 05:52:30;;;;;;;4.22;1.10;;;;;;;;;;5129579;27;20148;-62
2022/09/11 05:54:57;;;;;;;2.63;1.83;;;;;;;;;;5130776;27;20102;-63
2022/09/11 05:57:22;;;;;;;4.82;2.95;;;;;;;;;;5134542;27;20551;-62
2022/09/11 05:59:48;;;;;;;2.22;1.35;;;;;;;;;;5134189;27;20114;-62
2022/09/11 06:02:13;;;;;;;2.65;1.73;;;;;;;;;;5132366;27;20462;-62
2022/09/11 06:04:38;;;;;;;3.10;1.80;;;;;;;;;;5131487;27;20026;-62
2022/09/11 06:07:03;;;;;;;6.65;2.17;;;;;;;;;;5135277;27;20011;-62
2022/09/11 06:09:29;;;;;;;5.88;2.47;;;;;;;;;;5134398;27;20504;-62
2022/09/11 06:11:55;;;;;;;4.38;2.78;;;;;;;;;;5133438;27;20482;-62
2022/09/11 06:14:20;;;;;;;3.40;2.05;;;;;;;;;;5114272;27;20019;-62
2022/09/11 06:16:47;;;;;;;4.22;2.42;;;;;;;;;;5132590;27;20022;-62
2022/09/11 06:19:12;;;;;;;4.45;2.63;;;;;;;;;;5129183;27;20098;-63
2022/09/11 06:21:37;;;;;;;4.88;3.17;;;;;;;;;;5134629;27;20113;-62
2022/09/11 06:24:04;;;;;;;2.28;1.70;;;;;;;;;;5129697;27;20104;-62
2022/09/11 06:26:29;;;;;;;6.55;3.28;;;;;;;;;;5135266;27;20019;-62
2022/09/11 06:28:55;;;;;;;2.80;1.80;;;;;;;;;;5131027;27;20042;-62
2022/09/11 06:31:21;;;;;;;1.88;1.40;;;;;;;;;;5133089;27;20042;-62
2022/09/11 06:33:46;;;;;;;8.25;2.97;;;;;;;;;;5130875;27;20017;-64
2022/09/11 06:36:13;;;;;;;7.53;3.33;;;;;;;;;;5136648;27;20019;-66
2022/09/11 06:38:39;;;;;;;3.03;2.20;;;;;;;;;;5135035;27;20487;-66
2022/09/11 06:41:05;;;;;;;6.82;2.53;;;;;;;;;;5133078;27;20015;-66
2022/09/11 06:43:31;;;;;;;4.00;3.10;;;;;;;;;;5134786;27;20083;-66
2022/09/11 06:46:17;;;;;;;4.60;1.98;;;;;;;;;;5130761;27;20034;-65
2022/09/11 06:48:43;;;;;;;2.28;1.52;;;;;;;;;;5130755;27;20076;-65
2022/09/11 06:51:13;;;;;;;0.88;0.70;;;;;;;;;;5137272;27;20023;-65
2022/09/11 06:53:39;;;;;;;1.83;1.35;;;;;;;;;;5130984;27;20024;-65
2022/09/11 06:56:05;;;;;;;1.50;1.25;;;;;;;;;;5131916;27;20043;-64
2022/09/11 06:58:31;;;;;;;6.45;1.40;;;;;;;;;;5131423;27;20011;-65
2022/09/11 07:01:03;;;;;;;6.55;2.38;;;;;;;;;;5138282;27;20665;-65
2022/09/11 07:03:28;;;;;;;2.40;1.55;;;;;;;;;;5138002;27;20473;-65
2022/09/11 07:05:53;;;;;;;3.42;1.83;;;;;;;;;;5135767;27;20115;-63
2022/09/11 07:08:19;;;;;;;2.38;1.17;;;;;;;;;;5136081;27;20526;-61
2022/09/11 07:10:44;;;;;;;2.10;1.15;;;;;;;;;;5129933;27;20018;-63
2022/09/11 07:13:10;;;;;;;4.68;1.70;;;;;;;;;;5133257;27;20072;-62
2022/09/11 07:15:35;;;;;;;2.80;1.00;;;;;;;;;;5138372;27;20057;-63
2022/09/11 07:18:00;;;;;;;3.08;1.65;;;;;;;;;;5129287;27;20026;-64
2022/09/11 07:20:26;;;;;;;1.98;1.30;;;;;;;;;;5126613;27;20399;-62
2022/09/11 07:22:51;;;;;;;1.85;0.95;;;;;;;;;;5129927;27;20043;-64
2022/09/11 07:25:17;;;;;;;9.82;1.63;;;;;;;;;;5136458;27;20101;-62
2022/09/11 07:27:43;;;;;;;1.40;0.70;;;;;;;;;;5141567;27;20098;-62
2022/09/11 07:30:08;;;;;;;3.15;1.90;;;;;;;;;;5132289;27;20020;-64
2022/09/11 07:32:34;;;;;;;1.25;0.98;;;;;;;;;;5130620;27;20038;-63
2022/09/11 07:35:01;;;;;;;1.38;1.08;;;;;;;;;;5138822;27;20159;-63
2022/09/11 07:37:26;;;;;;;4.63;1.67;;;;;;;;;;5136442;27;20492;-63
2022/09/11 07:39:51;;;;;;;1.40;0.85;;;;;;;;;;5131792;27;20022;-63
2022/09/11 07:42:17;;;;;;;5.38;1.40;;;;;;;;;;5134054;27;20023;-64
2022/09/11 07:44:42;;;;;;;3.13;1.55;;;;;;;;;;5136132;27;20286;-58
2022/09/11 07:47:07;;;;;;;1.52;1.08;;;;;;;;;;5135639;27;20019;-58
2022/09/11 07:49:33;;;;;;;1.67;0.85;;;;;;;;;;5136469;27;20482;-64
2022/09/11 07:51:58;;;;;;;1.60;1.20;;;;;;;;;;5128778;27;20011;-65
2022/09/11 07:54:25;;;;;;;3.25;1.70;;;;;;;;;;5130290;27;20045;-66
2022/09/11 07:56:51;;;;;;;4.85;1.42;;;;;;;;;;5132584;27;20059;-65
2022/09/11 07:59:17;;;;;;;3.97;1.65;;;;;;;;;;5131921;27;20062;-65
2022/09/11 08:01:42;;;;;;;1.60;0.73;;;;;;;;;;5133048;27;20083;-65
2022/09/11 08:04:13;;;;;;;2.17;1.60;;;;;;;;;;5127667;27;20017;-65
2022/09/11 08:06:38;;;;;;;3.55;1.30;;;;;;;;;;5128243;27;20029;-65
2022/09/11 08:09:06;;;;;;;1.45;0.77;;;;;;;;;;5131751;27;20023;-66
2022/09/11 08:11:35;;;;;;;10.88;1.05;;;;;;;;;;5131212;27;20548;-65
2022/09/11 08:14:00;;;;;;;3.67;1.05;;;;;;;;;;5128827;27;20046;-65
2022/09/11 08:16:26;;;;;;;2.45;0.80;;;;;;;;;;5131301;27;20126;-67
2022/09/11 08:18:52;;;;;;;0.60;0.47;;;;;;;;;;5134066;27;20147;-65
2022/09/11 08:21:17;;;;;;;1.10;0.82;;;;;;;;;;5130345;27;20546;-65
2022/09/11 08:23:43;;;;;;;2.65;1.40;;;;;;;;;;5134310;27;20012;-65
2022/09/11 08:26:13;;;;;;;1.35;0.90;;;;;;;;;;5134380;27;20073;-66
2022/09/11 08:28:41;;;;;;;5.13;1.60;;;;;;;;;;5132311;27;20085;-65
2022/09/11 08:31:07;;;;;;;2.50;1.15;;;;;;;;;;5134817;27;20026;-66
2022/09/11 08:33:32;;;;;;;2.17;1.02;;;;;;;;;;5134783;27;20502;-66
2022/09/11 08:35:58;;;;;;;4.28;0.98;;;;;;;;;;5133076;27;20011;-66
2022/09/11 08:38:23;;;;;;;0.98;0.50;;;;;;;;;;5135089;27;20019;-66
2022/09/11 08:40:49;;;;;;;3.28;1.55;;;;;;;;;;5135871;27;20071;-66
2022/09/11 08:43:22;;;;;;;0.95;0.63;;;;;;;;;;5135069;27;20023;-66
2022/09/11 08:45:50;;;;;;;2.58;1.13;;;;;;;;;;5136169;27;20075;-66
2022/09/11 08:48:18;;;;;;;6.88;1.35;;;;;;;;;;5131412;27;20023;-65
2022/09/11 08:50:43;;;;;;;1.20;0.70;;;;;;;;;;5133649;27;20022;-65
2022/09/11 08:53:14;;;;;;;1.60;0.73;;;;;;;;;;5133283;27;21234;-66
2022/09/11 08:55:43;;;;;;;1.27;0.70;;;;;;;;;;5131793;27;20090;-66
2022/09/11 08:58:29;;;;;;;4.32;1.48;;;;;;;;;;5131156;27;20042;-65
2022/09/11 09:01:03;;;;;;;2.78;1.08;;;;;;;;;;5134947;27;20027;-65
2022/09/11 09:03:29;;;;;;;1.88;1.45;;;;;;;;;;5127461;27;20023;-66
2022/09/11 09:06:11;;;;;;;3.40;2.88;;;;;;;;;;5127403;27;20049;-66
2022/09/11 09:08:48;;;;;;;1.48;0.93;;;;;;;;;;5131197;27;20059;-66
2022/09/11 09:11:36;;;;;;;2.17;0.85;;;;;;;;;;5132265;27;20050;-65
2022/09/11 09:14:05;;;;;;;2.45;1.30;;;;;;;;;;5134056;27;20106;-67
2022/09/11 09:16:38;;;;;;;2.03;1.38;;;;;;;;;;5132802;27;20096;-66
2022/09/11 09:19:13;;;;;;;2.15;1.00;;;;;;;;;;5130637;27;20015;-65
2022/09/11 09:21:48;;;;;;;2.00;1.00;;;;;;;;;;5133116;27;20027;-67
2022/09/11 09:24:20;;;;;;;0.90;0.45;;;;;;;;;;5135161;27;20023;-65
2022/09/11 09:26:55;;;;;;;1.48;1.00;;;;;;;;;;5134747;27;20107;-67
2022/09/11 09:29:27;;;;;;;2.58;1.23;;;;;;;;;;5135265;27;20691;-66
2022/09/11 09:31:56;;;;;;;1.45;0.80;;;;;;;;;;5132459;27;20023;-65
2022/09/11 09:34:23;;;;;;;1.40;1.15;;;;;;;;;;5130054;27;20704;-66
2022/09/11 09:36:56;;;;;;;9.00;1.42;;;;;;;;;;5132039;27;20023;-64
2022/09/11 09:39:22;;;;;;;1.15;0.90;;;;;;;;;;5133452;27;20067;-65
2022/09/11 09:42:00;;;;;;;1.40;0.77;;;;;;;;;;5132062;27;20041;-67
2022/09/11 09:44:45;;;;;;;4.20;1.17;;;;;;;;;;5132889;27;20054;-67
2022/09/11 09:47:11;;;;;;;1.55;0.70;;;;;;;;;;5130734;27;20049;-65
2022/09/11 09:49:37;;;;;;;2.38;1.17;;;;;;;;;;5135342;27;20114;-64
2022/09/11 09:52:15;;;;;;;2.05;1.25;;;;;;;;;;5129051;27;20019;-67
2022/09/11 09:54:42;;;;;;;2.10;1.25;;;;;;;;;;5136365;27;20019;-65
2022/09/11 09:57:09;;;;;;;1.75;1.13;;;;;;;;;;5136653;27;20050;-66
2022/09/11 09:59:42;;;;;;;1.30;0.70;;;;;;;;;;5133756;27;20442;-65
2022/09/11 10:02:07;;;;;;;0.93;0.68;;;;;;;;;;5126236;27;20054;-67
2022/09/11 10:04:32;;;;;;;3.80;1.30;;;;;;;;;;5128479;27;20415;-65
2022/09/11 10:07:09;;;;;;;3.70;1.02;;;;;;;;;;5129523;27;20023;-66
2022/09/11 10:09:35;;;;;;;1.00;0.73;;;;;;;;;;5133415;27;20022;-65
2022/09/11 10:12:11;;;;;;;2.42;1.23;;;;;;;;;;5131475;27;20553;-66
2022/09/11 10:14:49;;;;;;;1.10;1.00;;;;;;;;;;5128138;27;20015;-67
2022/09/11 10:17:22;;;;;;;2.80;1.02;;;;;;;;;;5131345;27;20197;-66
2022/09/11 10:19:47;;;;;;;1.10;0.77;;;;;;;;;;5127306;27;20015;-65
2022/09/11 10:22:23;;;;;;;1.88;1.13;;;;;;;;;;5135287;27;20041;-67
2022/09/11 10:25:02;;;;;;;1.67;0.90;;;;;;;;;;5133693;27;20334;-68
2022/09/11 10:27:30;;;;;;;0.60;0.40;;;;;;;;;;5130053;27;20462;-68
2022/09/11 10:29:56;;;;;;;1.73;1.00;;;;;;;;;;5130792;27;20040;-68
2022/09/11 10:32:23;;;;;;;4.28;1.30;;;;;;;;;;5134515;27;20827;-66
2022/09/11 10:34:50;;;;;;;5.32;1.38;;;;;;;;;;5132944;27;20132;-65
2022/09/11 10:37:15;;;;;;;1.10;0.75;;;;;;;;;;5130510;27;20441;-68
2022/09/11 10:39:42;;;;;;;2.65;0.95;;;;;;;;;;5130865;27;20486;-66
2022/09/11 10:42:15;;;;;;;4.13;1.10;;;;;;;;;;5132675;27;20015;-67
2022/09/11 10:44:42;;;;;;;2.85;1.58;;;;;;;;;;5132989;27;20087;-65
2022/09/11 10:47:20;;;;;;;1.35;1.02;;;;;;;;;;5137123;27;20081;-67
2022/09/11 10:49:46;;;;;;;3.13;1.45;;;;;;;;;;5133970;27;20069;-67
2022/09/11 10:52:12;;;;;;;1.30;0.85;;;;;;;;;;5135232;27;20483;-64
2022/09/11 10:55:00;;;;;;;2.35;0.70;;;;;;;;;;5132375;27;20023;-66
2022/09/11 10:57:26;;;;;;;4.85;0.88;;;;;;;;;;5131712;27;20494;-67
2022/09/11 11:00:10;;;;;;;9.23;0.70;;;;;;;;;;5133949;27;20026;-66
2022/09/11 11:02:39;;;;;;;1.17;0.75;;;;;;;;;;5132075;27;20250;-65
2022/09/11 11:05:07;;;;;;;2.53;0.75;;;;;;;;;;5126587;27;20119;-67
2022/09/11 11:07:44;;;;;;;2.00;0.98;;;;;;;;;;5130444;27;20364;-66
2022/09/11 11:10:19;;;;;;;1.42;0.90;;;;;;;;;;5133507;27;20015;-64
2022/09/11 11:13:05;;;;;;;1.65;0.95;;;;;;;;;;5130679;27;20123;-67
2022/09/11 11:15:56;;;;;;;1.45;0.63;;;;;;;;;;5093207;27;20035;-66
2022/09/11 11:18:25;;;;;;;1.80;0.85;;;;;;;;;;5128974;27;20474;-67
2022/09/11 11:21:06;;;;;;;1.13;0.30;;;;;;;;;;5128619;27;20023;-67
2022/09/11 11:23:44;;;;;;;3.50;0.80;;;;;;;;;;5133609;27;20027;-66
2022/09/11 11:26:28;;;;;;;0.43;0.32;;;;;;;;;;5127268;27;20079;-65
2022/09/11 11:28:57;;;;;;;1.13;0.85;;;;;;;;;;5133317;27;20031;-66
2022/09/11 11:31:37;;;;;;;0.45;0.20;;;;;;;;;;5137855;27;20021;-65
2022/09/11 11:34:02;;;;;;;3.78;0.82;;;;;;;;;;5135002;27;20023;-68
2022/09/11 11:36:27;;;;;;;0.93;0.50;;;;;;;;;;5128437;27;20486;-67
2022/09/11 11:38:59;;;;;;;1.52;0.60;;;;;;;;;;5133720;27;20044;-67
2022/09/11 11:41:28;;;;;;;2.10;1.67;;;;;;;;;;5130366;27;20054;-66
2022/09/11 11:43:55;;;;;;;0.50;0.30;;;;;;;;;;5134035;27;20098;-65
2022/09/11 11:46:51;;;;;;;2.60;1.33;;;;;;;;;;5134438;27;20525;-66
2022/09/11 11:49:27;;;;;;;1.52;1.00;;;;;;;;;;5117318;27;20133;-67
2022/09/11 11:51:56;;;;;;;8.60;1.58;;;;;;;;;;5132252;27;20027;-67
2022/09/11 11:54:41;;;;;;;4.45;0.88;;;;;;;;;;5127203;27;20531;-65
2022/09/11 11:57:15;;;;;;;1.58;1.00;;;;;;;;;;5133617;27;20046;-67
2022/09/11 11:59:46;;;;;;;4.93;1.20;;;;;;;;;;5132703;27;20461;-67
2022/09/11 12:02:11;;;;;;;;;;;;;;;;;;5129915;27;20023;-67
2022/09/11 12:04:54;;;;;;;1.85;1.20;;;;;;;;;;5132449;27;19973;-67
2022/09/11 12:07:25;;;;;;;3.63;1.30;;;;;;;;;;5131339;27;20046;-67
2022/09/11 12:09:52;;;;;;;1.33;0.63;;;;;;;;;;5138085;27;20063;-66
2022/09/11 12:12:18;;;;;;;0.57;0.50;;;;;;;;;;5130650;27;20109;-66
2022/09/11 12:14:48;;;;;;;1.80;1.05;;;;;;;;;;5126551;27;20003;-67
2022/09/11 12:17:16;;;;;;;1.00;0.57;;;;;;;;;;5131778;27;20098;-68
2022/09/11 12:20:02;;;;;;;4.80;1.13;;;;;;;;;;5136825;27;20039;-68
2022/09/11 12:22:37;;;;;;;1.45;0.45;;;;;;;;;;5134120;27;20048;-67
2022/09/11 12:25:03;;;;;;;3.25;0.73;;;;;;;;;;5132662;27;20069;-65
2022/09/11 12:27:49;;;;;;;0.88;0.60;;;;;;;;;;5131599;27;20496;-65
2022/09/11 12:30:14;;;;;;;1.52;0.70;;;;;;;;;;5124961;27;20031;-67
2022/09/11 12:32:44;;;;;;;1.65;0.85;;;;;;;;;;5135557;27;20024;-67
2022/09/11 12:35:24;;;;;;;6.10;1.63;;;;;;;;;;5131935;27;20035;-67
2022/09/11 12:37:53;;;;;;;1.20;1.10;;;;;;;;;;5133287;27;20026;-66
2022/09/11 12:40:22;;;;;;;0.52;0.40;;;;;;;;;;5134587;27;20471;-66
2022/09/11 12:42:55;;;;;;;1.70;0.73;;;;;;;;;;5133535;27;20027;-68
2022/09/11 12:45:29;;;;;;;1.33;0.57;;;;;;;;;;5133194;27;20054;-67
2022/09/11 12:48:01;;;;;;;1.40;1.00;;;;;;;;;;5129667;27;20595;-65
2022/09/11 12:50:27;;;;;;;2.08;0.80;;;;;;;;;;5130471;27;20011;-67
2022/09/11 12:52:56;;;;;;;0.65;0.65;;;;;;;;;;5131651;27;20552;-68
2022/09/11 12:55:28;;;;;;;0.90;0.52;;;;;;;;;;5132586;27;20035;-66
2022/09/11 12:57:53;;;;;;;0.70;0.50;;;;;;;;;;5132548;27;20026;-66
2022/09/11 13:00:33;;;;;;;2.63;0.90;;;;;;;;;;5135700;27;20016;-64
2022/09/11 13:02:59;;;;;;;0.20;0.20;;;;;;;;;;5138945;27;20027;-65
2022/09/11 13:05:34;;;;;;;3.63;1.10;;;;;;;;;;5130571;27;20031;-66
2022/09/11 13:08:03;;;;;;;1.92;1.08;;;;;;;;;;5131836;27;20040;-68
2022/09/11 13:10:38;;;;;;;0.82;0.75;;;;;;;;;;5134309;27;20541;-67
2022/09/11 13:13:23;;;;;;;0.70;0.65;;;;;;;;;;5135095;27;20102;-67
2022/09/11 13:15:51;;;;;;;1.73;0.93;;;;;;;;;;5132107;27;20067;-66
2022/09/11 13:18:34;;;;;;;1.35;0.77;;;;;;;;;;5133349;27;20104;-67
2022/09/11 13:21:08;;;;;;;0.45;0.43;;;;;;;;;;5135100;27;20079;-65
2022/09/11 13:23:34;;;;;;;2.05;0.90;;;;;;;;;;5134758;27;20023;-67
2022/09/11 13:26:00;;;;;;;7.47;2.95;;;;;;;;;;5132520;27;20030;-65
2022/09/11 13:28:27;;;;;;;1.52;0.98;;;;;;;;;;5131952;27;20110;-66
2022/09/11 13:31:03;;;;;;;1.85;1.10;;;;;;;;;;5136777;27;20023;-64
2022/09/11 13:33:29;;;;;;;1.23;0.65;;;;;;;;;;5133867;27;20030;-65
2022/09/11 13:36:01;;;;;;;9.70;1.15;;;;;;;;;;5132439;27;20764;-66
2022/09/11 13:38:32;;;;;;;1.55;0.73;;;;;;;;;;5135833;27;20014;-66
2022/09/11 13:40:59;;;;;;;5.78;0.88;;;;;;;;;;5135376;27;20023;-67
2022/09/11 13:43:29;;;;;;;0.82;0.70;;;;;;;;;;5132907;27;20041;-65
2022/09/11 13:46:16;;;;;;;1.55;1.08;;;;;;;;;;5128785;27;20023;-67
2022/09/11 13:48:42;;;;;;;5.05;0.77;;;;;;;;;;5132033;27;20025;-65
2022/09/11 13:51:15;;;;;;;4.95;1.67;;;;;;;;;;5135000;27;20027;-66
2022/09/11 13:53:41;;;;;;;0.70;0.57;;;;;;;;;;5133224;27;20196;-65
2022/09/11 13:56:34;;;;;;;4.82;1.50;;;;;;;;;;5132523;27;20043;-66
2022/09/11 13:59:19;;;;;;;1.50;0.63;;;;;;;;;;5131366;27;20038;-66
2022/09/11 14:01:59;;;;;;;2.00;0.73;;;;;;;;;;5130108;27;20031;-64
2022/09/11 14:04:26;;;;;;;1.48;1.00;;;;;;;;;;5129770;27;20055;-64
2022/09/11 14:06:51;;;;;;;1.17;0.70;;;;;;;;;;5132898;27;20051;-64
2022/09/11 14:09:18;;;;;;;4.43;1.25;;;;;;;;;;5138720;27;20520;-65
2022/09/11 14:11:43;;;;;;;1.52;0.98;;;;;;;;;;5130280;27;20067;-65
2022/09/11 14:14:27;;;;;;;0.52;0.40;;;;;;;;;;5131080;27;20023;-66
2022/09/11 14:17:00;;;;;;;1.98;0.75;;;;;;;;;;5126290;27;20026;-67
2022/09/11 14:19:27;;;;;;;4.10;0.75;;;;;;;;;;5131823;27;20569;-67
2022/09/11 14:21:52;;;;;;;1.27;1.00;;;;;;;;;;5134374;27;20051;-67
2022/09/11 14:24:37;;;;;;;1.42;0.70;;;;;;;;;;5135159;27;20022;-66
2022/09/11 14:27:03;;;;;;;2.50;1.08;;;;;;;;;;5129162;27;20023;-67
2022/09/11 14:29:35;;;;;;;0.43;0.32;;;;;;;;;;5127803;27;20033;-66
2022/09/11 14:32:22;;;;;;;5.20;0.70;;;;;;;;;;5134916;27;20015;-67
2022/09/11 14:34:48;;;;;;;1.17;0.65;;;;;;;;;;5114731;27;20034;-67
2022/09/11 14:37:15;;;;;;;1.95;1.02;;;;;;;;;;5132298;27;20037;-65
2022/09/11 14:39:42;;;;;;;0.75;0.40;;;;;;;;;;5127842;27;20471;-65
2022/09/11 14:42:09;;;;;;;2.90;0.90;;;;;;;;;;5132260;27;20047;-66
2022/09/11 14:44:34;;;;;;;0.93;0.70;;;;;;;;;;5131567;27;20062;-65
2022/09/11 14:47:00;;;;;;;10.65;0.82;;;;;;;;;;5133085;27;20051;-67
2022/09/11 14:49:25;;;;;;;1.20;0.85;;;;;;;;;;5127253;27;20015;-67
2022/09/11 14:51:52;;;;;;;1.10;0.70;;;;;;;;;;5128455;27;20022;-66
2022/09/11 14:54:19;;;;;;;1.50;0.93;;;;;;;;;;5135184;27;20047;-66
2022/09/11 14:56:45;;;;;;;2.38;0.60;;;;;;;;;;5130347;27;20156;-67